Pagrindinis puslapis
METAR-TAF:

METAR-TAF

Oro uostai :

Nakhon Ratchasima, Tailandas

platuma: 14-56-58N, ilguma: 102-18-45E, Aukštis: 233 m

Dabartinis oras

Ataskaita buvo paskelbta 9 valandos ir 3 minutes, ne 11:00 UTC
Vėjas 4 kt iš Pietų
Temperatūra 27°C
Drėgmė 94%
Slėgis 1008 hPa
Matomumas 10 km arba daugiau
Išsisklaidę debesys ne aukštis 2500 ft

METAR: VTUQ 221100Z 18004KT 9999 SCT025 27/26 Q1008 NOSIG

Laikas: 03:03 (20:03 UTC)

Prognozė

Ataskaita buvo paskelbta 3 valandos ir 3 minutes, ne 17:00 UTC
Prognozė galioja nuo 22 metu 18 UTC su 23 metu 18 UTC
Vėjas 5 kt iš Pietų
Matomumas 10 km arba daugiau
Išsisklaidę debesys ne aukštis 2500 ft
Laikinai
nuo 23 metu 09 UTC su 23 metu 12 UTC
Vėjas 15 kt iš Rytų/Šiaurės Rytų
Matomumas: 4000 m
Mažai debesys ne aukštis 1800 ft, Liūtiniai kamuoliniai debesys.
Su prošvaistėmis ne aukštis 2500 ft
perkūnija, lietus

TAF: VTUQ 221700Z 2218/2318 17005KT 9999 SCT025 TEMPO 2309/2312 07015KT 4000 TSRA FEW018CB BKN025

Orai ataskaitas ir orų prognozės (METAR, TAF).

turimą stotys yra geltonos ir raudonos taškus žemėlapyje.

Perkelti pele per norėdami pamatyti stoties vardą.

Tada spustelėkite, norėdami matyti oro stebėjimo ir prognozės.

Norėdami pakeisti žemėlapį: spustelėkite ant žalios mygtukų su juodo kryžiaus žemyn,; žalią mygtuką su brūkšneliu, jei norite nutolinti; arba žalių rodyklių gretimoms žemėlapius.


METAR-TAF: